createdAt,value
2018-10-07T00:00:26.592Z,10.50
2018-10-07T00:02:55.603Z,11.10
2018-10-07T00:05:24.820Z,11.37
2018-10-07T00:07:53.970Z,10.73
2018-10-07T00:10:23.042Z,10.00
2018-10-07T00:12:51.716Z,10.37
2018-10-07T00:15:20.685Z,9.60
2018-10-07T00:17:49.378Z,10.10
2018-10-07T00:20:18.234Z,10.10
2018-10-07T00:22:47.085Z,9.33
2018-10-07T00:25:15.869Z,9.77
2018-10-07T00:27:44.826Z,10.03
2018-10-07T00:30:13.624Z,9.30
2018-10-07T00:32:42.452Z,9.77
2018-10-07T00:35:11.156Z,9.30
2018-10-07T00:37:40.026Z,9.20
2018-10-07T00:40:08.852Z,9.53
2018-10-07T00:42:37.569Z,9.43
2018-10-07T00:45:06.405Z,9.27
2018-10-07T00:47:35.255Z,10.20
2018-10-07T00:50:04.092Z,9.37
2018-10-07T00:52:33.108Z,9.37
2018-10-07T00:55:01.931Z,9.23
2018-10-07T00:57:30.983Z,9.07
2018-10-07T00:59:59.803Z,8.80
2018-10-07T01:02:28.595Z,9.30
2018-10-07T01:04:57.447Z,9.10
2018-10-07T01:07:27.309Z,8.37
2018-10-07T01:09:56.125Z,8.83
2018-10-07T01:12:25.002Z,8.70
2018-10-07T01:14:53.845Z,8.80
2018-10-07T01:17:22.737Z,8.30
2018-10-07T01:19:51.505Z,8.43
2018-10-07T01:22:20.613Z,8.10
2018-10-07T01:24:49.548Z,7.97
2018-10-07T01:27:18.462Z,8.57
2018-10-07T01:29:47.295Z,8.23
2018-10-07T01:32:16.021Z,7.67
2018-10-07T01:34:44.785Z,7.90
2018-10-07T01:37:13.562Z,7.73
2018-10-07T01:39:42.425Z,7.90
2018-10-07T01:42:11.156Z,8.00
2018-10-07T01:44:39.986Z,8.60
2018-10-07T01:47:08.826Z,8.80
2018-10-07T01:49:37.672Z,8.93
2018-10-07T01:52:06.434Z,8.60
2018-10-07T01:54:35.357Z,8.17
2018-10-07T01:57:04.081Z,8.60
2018-10-07T01:59:33.135Z,8.03
2018-10-07T02:02:01.817Z,8.50
2018-10-07T02:04:30.735Z,8.37
2018-10-07T02:06:59.699Z,8.33
2018-10-07T02:09:28.549Z,7.60
2018-10-07T02:11:57.421Z,7.77
2018-10-07T02:14:26.243Z,8.17
2018-10-07T02:16:55.276Z,7.97
2018-10-07T02:19:24.206Z,7.87
2018-10-07T02:21:52.930Z,8.03
2018-10-07T02:24:21.772Z,8.20
2018-10-07T02:26:50.471Z,9.00
2018-10-07T02:29:19.223Z,9.57
2018-10-07T02:31:48.041Z,9.47
2018-10-07T02:34:16.733Z,10.03
2018-10-07T02:36:45.537Z,8.97
2018-10-07T02:39:14.381Z,8.93
2018-10-07T02:41:43.058Z,8.60
2018-10-07T02:44:11.943Z,9.07
2018-10-07T02:46:40.604Z,8.00
2018-10-07T02:49:09.467Z,8.23
2018-10-07T02:51:38.233Z,8.20
2018-10-07T02:54:07.014Z,8.50
2018-10-07T02:56:35.802Z,8.70
2018-10-07T02:59:04.602Z,8.70
2018-10-07T03:01:33.515Z,9.00
2018-10-07T03:04:02.378Z,9.10
2018-10-07T03:06:31.154Z,9.03
2018-10-07T03:08:59.987Z,8.80
2018-10-07T03:11:28.697Z,9.13
2018-10-07T03:13:57.521Z,8.73
2018-10-07T03:16:26.345Z,9.23
2018-10-07T03:18:55.045Z,8.90
2018-10-07T03:21:23.810Z,9.10
2018-10-07T03:23:53.066Z,9.33
2018-10-07T03:26:21.786Z,9.07
2018-10-07T03:28:50.640Z,9.00
2018-10-07T03:31:19.451Z,9.30
2018-10-07T03:33:48.399Z,9.57
2018-10-07T03:36:17.269Z,9.80
2018-10-07T03:38:46.039Z,10.00
2018-10-07T03:41:14.869Z,9.63
2018-10-07T03:43:43.681Z,9.83
2018-10-07T03:46:12.461Z,9.57
2018-10-07T03:48:41.281Z,9.40
2018-10-07T03:51:09.952Z,9.33
2018-10-07T03:53:38.786Z,9.63
2018-10-07T03:56:07.718Z,10.63
2018-10-07T03:58:36.550Z,10.53
2018-10-07T04:01:05.290Z,10.10
2018-10-07T04:03:33.997Z,9.87
2018-10-07T04:06:02.777Z,10.20
2018-10-07T04:08:31.751Z,9.83
2018-10-07T04:11:00.419Z,10.53
2018-10-07T04:13:29.115Z,10.67
2018-10-07T04:15:57.825Z,10.37
2018-10-07T04:18:26.647Z,11.00
2018-10-07T04:20:55.541Z,11.67
2018-10-07T04:23:24.322Z,11.00
2018-10-07T04:25:53.073Z,11.17
2018-10-07T04:28:21.993Z,11.67
2018-10-07T04:30:50.850Z,10.83
2018-10-07T04:33:19.644Z,11.80
2018-10-07T04:35:48.353Z,11.47
2018-10-07T04:38:17.141Z,11.90
2018-10-07T04:40:46.198Z,12.13
2018-10-07T04:43:15.106Z,11.60
2018-10-07T04:45:43.937Z,11.20
2018-10-07T04:48:12.736Z,11.60
2018-10-07T04:50:41.673Z,11.20
2018-10-07T04:53:10.488Z,11.90
2018-10-07T04:55:39.201Z,11.23
2018-10-07T04:58:07.989Z,11.30
2018-10-07T05:00:36.717Z,10.83
2018-10-07T05:03:05.513Z,11.47
2018-10-07T05:05:34.151Z,11.43
2018-10-07T05:08:02.813Z,13.07
2018-10-07T05:10:49.813Z,12.33
2018-10-07T05:13:21.367Z,12.20
2018-10-07T05:15:52.683Z,12.37
2018-10-07T05:18:21.542Z,12.87
2018-10-07T05:20:50.532Z,13.60
2018-10-07T05:23:19.295Z,14.60
2018-10-07T05:25:48.203Z,14.77
2018-10-07T05:28:17.412Z,13.63
2018-10-07T05:30:46.350Z,13.60
2018-10-07T05:33:15.008Z,13.63
2018-10-07T05:35:43.906Z,12.90
2018-10-07T05:38:12.715Z,12.90
2018-10-07T05:40:41.422Z,12.77
2018-10-07T05:43:10.113Z,14.10
2018-10-07T05:45:38.837Z,12.93
2018-10-07T05:48:07.549Z,12.63
2018-10-07T05:50:37.769Z,11.47
2018-10-07T05:53:06.821Z,12.67
2018-10-07T05:55:35.759Z,13.60
2018-10-07T05:58:06.004Z,12.93
2018-10-07T06:00:36.603Z,12.63
2018-10-07T06:05:17.576Z,12.40
2018-10-07T06:07:46.225Z,13.03
2018-10-07T06:10:16.982Z,12.60
2018-10-07T06:12:45.781Z,12.53
2018-10-07T06:15:32.771Z,13.10
2018-10-07T06:18:01.480Z,12.30
2018-10-07T06:20:31.112Z,13.30
2018-10-07T06:22:59.964Z,12.40
2018-10-07T06:25:28.789Z,13.00
2018-10-07T06:27:58.232Z,12.13
2018-10-07T06:30:27.032Z,11.97
2018-10-07T06:32:55.853Z,12.53
2018-10-07T06:35:25.437Z,12.30
2018-10-07T06:37:54.801Z,12.27
2018-10-07T06:40:23.672Z,13.27
2018-10-07T06:42:52.566Z,12.03
2018-10-07T06:45:21.311Z,13.33
2018-10-07T06:47:50.097Z,12.87
2018-10-07T06:50:18.867Z,12.70
2018-10-07T06:52:47.568Z,13.53
2018-10-07T06:55:16.239Z,12.53
2018-10-07T06:57:44.977Z,14.13
2018-10-07T07:00:13.777Z,12.70
2018-10-07T07:02:42.545Z,15.30
2018-10-07T07:05:11.341Z,16.27
2018-10-07T07:07:40.170Z,14.77
2018-10-07T07:10:08.957Z,14.90
2018-10-07T07:12:37.813Z,13.97
2018-10-07T07:15:06.603Z,11.83
2018-10-07T07:17:35.487Z,12.57
2018-10-07T07:20:04.297Z,12.03
2018-10-07T07:22:33.085Z,12.67
2018-10-07T07:25:01.743Z,11.70
2018-10-07T07:27:30.576Z,11.70
2018-10-07T07:29:59.266Z,10.73
2018-10-07T07:32:28.067Z,11.50
2018-10-07T07:34:56.921Z,11.63
2018-10-07T07:37:25.669Z,11.63
2018-10-07T07:39:54.440Z,11.23
2018-10-07T07:42:23.406Z,10.80
2018-10-07T07:44:52.140Z,10.73
2018-10-07T07:47:21.120Z,10.70
2018-10-07T07:49:49.913Z,11.10
2018-10-07T07:52:19.485Z,10.47
2018-10-07T07:54:48.823Z,10.50
2018-10-07T07:57:17.440Z,10.50
2018-10-07T07:59:46.219Z,10.90
2018-10-07T08:02:15.155Z,11.00
2018-10-07T08:04:43.699Z,10.23
2018-10-07T08:07:12.405Z,11.00
2018-10-07T08:09:41.188Z,10.80
2018-10-07T08:12:09.992Z,11.73
2018-10-07T08:14:38.776Z,11.87
2018-10-07T08:17:07.460Z,12.13
2018-10-07T08:19:36.145Z,12.00
2018-10-07T08:22:04.864Z,11.63
2018-10-07T08:24:33.687Z,12.40
2018-10-07T08:27:02.489Z,13.10
2018-10-07T08:29:31.257Z,12.13
2018-10-07T08:32:00.114Z,11.90
2018-10-07T08:34:28.713Z,12.10
2018-10-07T08:36:57.481Z,12.63
2018-10-07T08:39:26.298Z,12.07
2018-10-07T08:41:55.074Z,12.13
2018-10-07T08:44:23.867Z,12.73
2018-10-07T08:46:52.534Z,11.67
2018-10-07T08:49:21.201Z,12.40
2018-10-07T08:51:50.039Z,12.70
2018-10-07T08:54:18.796Z,11.73
2018-10-07T08:56:47.586Z,12.30
2018-10-07T08:59:16.339Z,12.43
2018-10-07T09:01:45.029Z,12.30
2018-10-07T09:04:13.792Z,11.83
2018-10-07T09:06:42.466Z,11.70
2018-10-07T09:09:11.965Z,12.73
2018-10-07T09:11:41.225Z,26.30
2018-10-07T09:14:10.132Z,12.00
2018-10-07T09:16:38.963Z,11.73
2018-10-07T09:19:07.675Z,14.63
2018-10-07T09:21:36.340Z,13.37
2018-10-07T09:24:05.268Z,11.87
2018-10-07T09:26:34.010Z,11.67
2018-10-07T09:29:02.901Z,12.17
2018-10-07T09:31:31.708Z,11.53
2018-10-07T09:34:00.299Z,12.13
2018-10-07T09:36:28.978Z,12.13
2018-10-07T09:38:57.707Z,11.87
2018-10-07T09:41:26.394Z,12.13
2018-10-07T09:43:55.217Z,12.30
2018-10-07T09:46:23.911Z,11.27
2018-10-07T09:48:52.808Z,11.77
2018-10-07T09:51:21.616Z,16.63
2018-10-07T09:53:50.481Z,11.77
2018-10-07T09:56:19.421Z,11.43
2018-10-07T09:58:48.144Z,11.83
2018-10-07T10:01:16.882Z,11.83
2018-10-07T10:03:45.640Z,11.83
2018-10-07T10:06:16.235Z,12.60
2018-10-07T10:08:45.124Z,12.10
2018-10-07T10:11:13.900Z,12.97
2018-10-07T10:13:42.564Z,20.70
2018-10-07T10:16:11.176Z,13.83
2018-10-07T10:18:47.544Z,14.80
2018-10-07T10:21:23.645Z,15.00
2018-10-07T10:24:02.716Z,12.40
2018-10-07T10:29:03.111Z,19.50
2018-10-07T10:31:40.565Z,12.50
2018-10-07T10:34:23.679Z,14.97
2018-10-07T10:37:01.550Z,17.03
2018-10-07T10:39:47.504Z,15.03
2018-10-07T10:42:24.517Z,11.07
2018-10-07T10:45:02.213Z,10.07
2018-10-07T10:47:39.992Z,10.53
2018-10-07T10:52:21.306Z,10.43
2018-10-07T10:56:00.045Z,11.47
2018-10-07T10:59:06.268Z,9.33
2018-10-07T11:03:58.069Z,9.10
2018-10-07T11:06:38.338Z,8.30
2018-10-07T11:10:31.217Z,7.73
2018-10-07T11:13:06.578Z,7.53
2018-10-07T11:15:45.487Z,6.07
2018-10-07T11:18:20.228Z,5.90
2018-10-07T11:23:35.805Z,5.70
2018-10-07T11:26:10.049Z,4.67
2018-10-07T11:28:47.582Z,4.33
2018-10-07T11:32:20.981Z,4.10
2018-10-07T11:35:00.600Z,3.33
2018-10-07T11:37:43.590Z,3.62
2018-10-07T11:40:28.174Z,4.00
2018-10-07T11:45:13.557Z,4.87
2018-10-07T11:49:57.054Z,5.00
2018-10-07T11:53:02.250Z,4.40
2018-10-07T11:55:30.945Z,4.60
2018-10-07T11:57:59.685Z,4.03
2018-10-07T12:00:28.462Z,4.40
2018-10-07T12:02:57.187Z,3.83
2018-10-07T12:05:25.742Z,4.20
2018-10-07T12:07:54.395Z,4.60
2018-10-07T12:10:23.147Z,4.00
2018-10-07T12:12:51.828Z,4.00
2018-10-07T12:15:20.697Z,3.50
2018-10-07T12:17:49.504Z,3.30
2018-10-07T12:20:18.336Z,3.10
2018-10-07T12:22:47.179Z,3.60
2018-10-07T12:25:16.005Z,3.80
2018-10-07T12:27:44.841Z,3.33
2018-10-07T12:30:13.537Z,3.60
2018-10-07T12:32:42.169Z,3.57
2018-10-07T12:35:10.853Z,3.57
2018-10-07T12:37:39.683Z,4.40
2018-10-07T12:40:08.364Z,4.03
2018-10-07T12:42:37.205Z,3.40
2018-10-07T12:45:05.795Z,3.80
2018-10-07T12:47:34.405Z,2.87
2018-10-07T12:50:03.097Z,4.17
2018-10-07T12:52:31.977Z,3.73
2018-10-07T12:55:00.652Z,3.60
2018-10-07T12:57:29.581Z,4.27
2018-10-07T12:59:58.275Z,3.97
2018-10-07T13:02:26.977Z,3.90
2018-10-07T13:04:55.746Z,3.90
2018-10-07T13:07:24.530Z,4.37
2018-10-07T13:09:53.357Z,4.17
2018-10-07T13:12:21.933Z,4.10
2018-10-07T13:14:50.837Z,3.83
2018-10-07T13:17:19.522Z,4.10
2018-10-07T13:21:12.574Z,3.70
2018-10-07T13:23:41.260Z,3.60
2018-10-07T13:26:09.954Z,3.83
2018-10-07T13:28:39.254Z,4.20
2018-10-07T13:31:08.317Z,4.00
2018-10-07T13:33:37.310Z,3.93
2018-10-07T13:36:06.077Z,4.07
2018-10-07T13:38:34.869Z,4.43
2018-10-07T13:41:03.621Z,4.40
2018-10-07T13:43:32.400Z,4.00
2018-10-07T13:46:01.100Z,4.60
2018-10-07T13:48:29.761Z,4.20
2018-10-07T13:50:58.576Z,4.60
2018-10-07T13:53:27.326Z,4.20
2018-10-07T13:55:55.858Z,4.70
2018-10-07T13:58:24.648Z,4.43
2018-10-07T14:00:53.452Z,4.30
2018-10-07T14:03:22.211Z,4.43
2018-10-07T14:05:50.904Z,4.40
2018-10-07T14:08:19.697Z,4.67
2018-10-07T14:10:48.519Z,4.97
2018-10-07T14:13:17.325Z,4.90
2018-10-07T14:15:46.117Z,4.90
2018-10-07T14:18:14.797Z,4.80
2018-10-07T14:20:43.503Z,5.27
2018-10-07T14:23:12.275Z,5.13
2018-10-07T14:25:40.989Z,5.40
2018-10-07T14:28:10.805Z,5.47
2018-10-07T14:30:39.388Z,5.73
2018-10-07T14:33:08.197Z,5.60
2018-10-07T14:35:37.029Z,5.37
2018-10-07T14:38:05.903Z,5.90
2018-10-07T14:40:34.713Z,5.40
2018-10-07T14:43:03.549Z,5.30
2018-10-07T14:45:32.430Z,5.30
2018-10-07T14:48:01.251Z,4.80
2018-10-07T14:50:30.098Z,5.50
2018-10-07T14:52:59.105Z,5.70
2018-10-07T14:55:27.933Z,6.77
2018-10-07T14:57:56.736Z,12.07
2018-10-07T15:00:25.533Z,5.60
2018-10-07T15:02:54.160Z,24.93
2018-10-07T15:05:22.970Z,15.93
2018-10-07T15:07:51.781Z,8.63
2018-10-07T15:11:44.890Z,5.00
2018-10-07T15:14:13.453Z,6.70
2018-10-07T15:16:42.340Z,6.27
2018-10-07T15:19:11.188Z,5.07
2018-10-07T15:21:40.108Z,5.20
2018-10-07T15:24:10.301Z,4.70
2018-10-07T15:26:39.067Z,5.10
2018-10-07T15:29:07.782Z,4.73
2018-10-07T15:31:36.496Z,5.40
2018-10-07T15:34:05.166Z,3.50
2018-10-07T15:36:33.889Z,3.57
2018-10-07T15:39:02.660Z,3.97
2018-10-07T15:41:31.497Z,3.90
2018-10-07T15:44:00.189Z,3.40
2018-10-07T15:46:29.290Z,3.87
2018-10-07T15:48:58.093Z,4.43
2018-10-07T15:51:27.097Z,4.40
2018-10-07T15:53:55.913Z,3.73
2018-10-07T15:56:24.806Z,4.43
2018-10-07T15:58:53.784Z,4.33
2018-10-07T16:01:22.626Z,4.33
2018-10-07T16:03:51.565Z,4.60
2018-10-07T16:06:20.343Z,4.73
2018-10-07T16:08:49.274Z,5.40
2018-10-07T16:11:17.993Z,5.43
2018-10-07T16:13:46.832Z,5.53
2018-10-07T16:16:15.681Z,6.60
2018-10-07T16:18:44.585Z,6.77
2018-10-07T16:21:13.447Z,6.67
2018-10-07T16:23:42.344Z,7.20
2018-10-07T16:26:11.164Z,7.30
2018-10-07T16:28:40.117Z,7.37
2018-10-07T16:31:09.797Z,6.87
2018-10-07T16:33:38.668Z,8.20
2018-10-07T16:36:07.465Z,9.90
2018-10-07T16:38:36.366Z,8.13
2018-10-07T16:41:05.126Z,7.33
2018-10-07T16:43:33.976Z,10.03
2018-10-07T16:46:03.140Z,9.53
2018-10-07T16:48:31.912Z,9.53
2018-10-07T16:51:00.590Z,9.90
2018-10-07T16:53:29.340Z,9.47
2018-10-07T16:55:57.921Z,9.20
2018-10-07T16:58:26.806Z,8.60
2018-10-07T17:00:55.514Z,10.10
2018-10-07T17:03:24.390Z,9.33
2018-10-07T17:05:54.327Z,9.53
2018-10-07T17:08:23.183Z,9.30
2018-10-07T17:10:52.039Z,10.00
2018-10-07T17:13:20.832Z,12.40
2018-10-07T17:15:49.392Z,13.87
2018-10-07T17:18:18.228Z,18.57
2018-10-07T17:20:47.023Z,22.87
2018-10-07T17:23:15.600Z,19.70
2018-10-07T17:25:44.287Z,17.80
2018-10-07T17:28:12.882Z,16.10
2018-10-07T17:30:41.676Z,12.60
2018-10-07T17:33:10.488Z,12.03
2018-10-07T17:35:39.320Z,12.20
2018-10-07T17:38:08.291Z,12.00
2018-10-07T17:40:37.029Z,11.53
2018-10-07T17:43:05.820Z,14.50
2018-10-07T17:45:34.498Z,16.10
2018-10-07T17:48:06.499Z,19.00
2018-10-07T17:50:35.296Z,18.90
2018-10-07T17:53:04.204Z,16.03
2018-10-07T17:55:32.872Z,15.60
2018-10-07T17:58:01.557Z,14.77
2018-10-07T18:00:30.249Z,15.30
2018-10-07T18:02:59.176Z,13.70
2018-10-07T18:05:27.798Z,13.10
2018-10-07T18:07:56.517Z,12.73
2018-10-07T18:10:25.093Z,15.27
2018-10-07T18:12:53.748Z,15.07
2018-10-07T18:15:22.464Z,16.60
2018-10-07T18:17:51.287Z,16.27
2018-10-07T18:20:20.035Z,15.07
2018-10-07T18:22:48.736Z,16.17
2018-10-07T18:25:17.860Z,15.23
2018-10-07T18:27:46.567Z,14.80
2018-10-07T18:30:15.291Z,13.90
2018-10-07T18:32:44.099Z,14.07
2018-10-07T18:35:12.732Z,14.63
2018-10-07T18:37:41.556Z,14.00
2018-10-07T18:40:10.335Z,13.63
2018-10-07T18:42:39.002Z,11.53
2018-10-07T18:45:07.648Z,12.00
2018-10-07T18:47:36.433Z,10.43
2018-10-07T18:50:05.129Z,11.30
2018-10-07T18:52:33.921Z,11.00
2018-10-07T18:55:02.753Z,12.07
2018-10-07T18:57:31.556Z,10.90
2018-10-07T19:00:00.397Z,10.27
2018-10-07T19:02:29.235Z,10.10
2018-10-07T19:04:58.009Z,9.90
2018-10-07T19:07:26.841Z,9.60
2018-10-07T19:09:55.573Z,9.70
2018-10-07T19:12:24.483Z,10.00
2018-10-07T19:14:53.317Z,10.60
2018-10-07T19:17:22.142Z,10.17
2018-10-07T19:19:51.045Z,10.83
2018-10-07T19:22:19.745Z,10.70
2018-10-07T19:24:48.703Z,12.63
2018-10-07T19:27:17.428Z,11.83
2018-10-07T19:29:46.229Z,13.40
2018-10-07T19:32:15.075Z,12.33
2018-10-07T19:34:43.933Z,13.63
2018-10-07T19:37:12.981Z,13.13
2018-10-07T19:39:41.812Z,14.43
2018-10-07T19:42:10.518Z,13.63
2018-10-07T19:44:39.360Z,13.60
2018-10-07T19:47:08.117Z,14.47
2018-10-07T19:49:37.092Z,14.60
2018-10-07T19:52:05.789Z,14.83
2018-10-07T19:54:34.606Z,16.00
2018-10-07T19:57:03.468Z,15.50
2018-10-07T19:59:32.233Z,15.50
2018-10-07T20:02:00.942Z,16.70
2018-10-07T20:04:29.664Z,15.47
2018-10-07T20:06:58.504Z,14.73
2018-10-07T20:09:27.328Z,13.60
2018-10-07T20:11:56.189Z,12.60
2018-10-07T20:14:24.898Z,12.40
2018-10-07T20:16:53.655Z,11.20
2018-10-07T20:19:22.564Z,10.87
2018-10-07T20:21:51.413Z,10.13
2018-10-07T20:24:20.216Z,11.67
2018-10-07T20:26:48.820Z,11.13
2018-10-07T20:29:17.653Z,12.17
2018-10-07T20:31:46.485Z,13.00
2018-10-07T20:34:17.899Z,11.77
2018-10-07T20:36:46.877Z,11.90
2018-10-07T20:39:15.695Z,11.33
2018-10-07T20:41:44.429Z,12.03
2018-10-07T20:44:13.231Z,12.93
2018-10-07T20:46:42.085Z,14.90
2018-10-07T20:49:10.902Z,14.07
2018-10-07T20:51:40.848Z,14.13
2018-10-07T20:54:09.787Z,14.60
2018-10-07T20:56:38.626Z,15.40
2018-10-07T20:59:07.604Z,17.17
2018-10-07T21:01:36.572Z,19.23
2018-10-07T21:04:05.278Z,21.03
2018-10-07T21:06:34.223Z,22.00
2018-10-07T21:09:02.999Z,22.03
2018-10-07T21:11:31.836Z,23.77
2018-10-07T21:14:00.653Z,19.93
2018-10-07T21:16:29.499Z,18.30
2018-10-07T21:18:58.332Z,17.87
2018-10-07T21:21:27.181Z,19.53
2018-10-07T21:23:56.024Z,20.70
2018-10-07T21:26:24.869Z,19.00
2018-10-07T21:28:53.716Z,16.87
2018-10-07T21:31:22.561Z,18.10
2018-10-07T21:33:51.354Z,15.57
2018-10-07T21:36:21.166Z,18.77
2018-10-07T21:38:49.942Z,18.43
2018-10-07T21:41:18.880Z,18.43
2018-10-07T21:43:47.665Z,17.20
2018-10-07T21:46:16.476Z,17.33
2018-10-07T21:48:45.317Z,15.23
2018-10-07T21:51:14.241Z,14.77
2018-10-07T21:53:43.021Z,14.63
2018-10-07T21:56:12.946Z,14.20
2018-10-07T21:58:41.567Z,18.07
2018-10-07T22:01:10.265Z,16.40
2018-10-07T22:03:39.084Z,16.37
2018-10-07T22:06:07.861Z,16.07
2018-10-07T22:08:36.729Z,16.20
2018-10-07T22:11:05.406Z,16.57
2018-10-07T22:13:34.097Z,16.20
2018-10-07T22:16:02.839Z,17.87
2018-10-07T22:18:31.658Z,20.23
2018-10-07T22:21:00.448Z,19.37
2018-10-07T22:23:29.274Z,18.60
2018-10-07T22:25:57.951Z,16.77
2018-10-07T22:28:26.785Z,18.83
2018-10-07T22:30:55.540Z,18.87
2018-10-07T22:33:24.220Z,20.27
2018-10-07T22:35:52.773Z,22.00
2018-10-07T22:38:21.466Z,20.03
2018-10-07T22:40:50.266Z,18.60
2018-10-07T22:43:19.069Z,20.40
2018-10-07T22:45:47.653Z,20.23
2018-10-07T22:48:16.560Z,22.73
2018-10-07T22:50:45.352Z,24.20
2018-10-07T22:53:14.160Z,24.83
2018-10-07T22:55:42.829Z,21.53
2018-10-07T22:58:11.541Z,20.30
2018-10-07T23:00:40.222Z,22.73
2018-10-07T23:03:09.046Z,23.80
2018-10-07T23:05:37.868Z,31.10
2018-10-07T23:08:06.652Z,35.97
2018-10-07T23:10:35.702Z,39.20
2018-10-07T23:13:04.428Z,41.30
2018-10-07T23:15:33.284Z,51.30
2018-10-07T23:18:02.237Z,52.97
2018-10-07T23:20:31.055Z,54.17
2018-10-07T23:22:59.793Z,51.00
2018-10-07T23:25:28.573Z,51.67
2018-10-07T23:27:57.394Z,54.17
2018-10-07T23:30:25.939Z,51.13
2018-10-07T23:32:54.758Z,50.83
2018-10-07T23:35:24.517Z,50.77
2018-10-07T23:37:53.559Z,50.10
2018-10-07T23:40:22.337Z,49.77
2018-10-07T23:42:51.125Z,51.23
2018-10-07T23:45:20.005Z,50.00
2018-10-07T23:47:48.857Z,49.23
2018-10-07T23:50:17.835Z,49.47
2018-10-07T23:52:46.612Z,47.03
2018-10-07T23:55:15.313Z,47.57
2018-10-07T23:57:45.463Z,47.63
